sensor_id;sensor_type;location;lat;lon;timestamp;pressure;altitude;pressure_sealevel;temperature;humidity
13420;BME280;6781;58.440;15.470;2023-02-03T00:01:29;101537.19;;;-5.42;100.00
13420;BME280;6781;58.440;15.470;2023-02-03T00:03:56;101517.81;;;-5.52;100.00
13420;BME280;6781;58.440;15.470;2023-02-03T00:06:24;101518.66;;;-5.48;100.00
13420;BME280;6781;58.440;15.470;2023-02-03T00:08:51;101517.81;;;-5.46;100.00
13420;BME280;6781;58.440;15.470;2023-02-03T00:11:19;101519.50;;;-5.36;100.00
13420;BME280;6781;58.440;15.470;2023-02-03T00:13:46;101506.03;;;-5.35;100.00
13420;BME280;6781;58.440;15.470;2023-02-03T00:16:12;101492.53;;;-5.49;100.00
13420;BME280;6781;58.440;15.470;2023-02-03T00:18:39;101505.19;;;-5.37;100.00
13420;BME280;6781;58.440;15.470;2023-02-03T00:21:06;101494.25;;;-5.33;100.00
13420;BME280;6781;58.440;15.470;2023-02-03T00:23:35;101490.88;;;-5.32;100.00
13420;BME280;6781;58.440;15.470;2023-02-03T00:26:05;101485.81;;;-5.36;100.00
13420;BME280;6781;58.440;15.470;2023-02-03T00:28:32;101473.19;;;-5.45;100.00
13420;BME280;6781;58.440;15.470;2023-02-03T00:30:59;101472.34;;;-5.40;100.00
13420;BME280;6781;58.440;15.470;2023-02-03T00:33:26;101465.59;;;-5.53;100.00
13420;BME280;6781;58.440;15.470;2023-02-03T00:35:52;101460.53;;;-5.53;100.00
13420;BME280;6781;58.440;15.470;2023-02-03T00:38:19;101451.25;;;-5.59;100.00
13420;BME280;6781;58.440;15.470;2023-02-03T00:40:51;101450.44;;;-5.47;100.00
13420;BME280;6781;58.440;15.470;2023-02-03T00:43:18;101455.50;;;-5.44;100.00
13420;BME280;6781;58.440;15.470;2023-02-03T00:45:45;101447.06;;;-5.43;100.00
13420;BME280;6781;58.440;15.470;2023-02-03T00:48:12;101450.44;;;-5.38;100.00
13420;BME280;6781;58.440;15.470;2023-02-03T00:50:39;101450.44;;;-5.41;100.00
13420;BME280;6781;58.440;15.470;2023-02-03T00:53:06;101443.69;;;-5.45;100.00
13420;BME280;6781;58.440;15.470;2023-02-03T00:55:32;101436.97;;;-5.43;100.00
13420;BME280;6781;58.440;15.470;2023-02-03T00:58:01;101438.66;;;-5.48;100.00
13420;BME280;6781;58.440;15.470;2023-02-03T01:00:27;101442.00;;;-5.43;100.00
13420;BME280;6781;58.440;15.470;2023-02-03T01:02:54;101431.91;;;-5.43;100.00
13420;BME280;6781;58.440;15.470;2023-02-03T01:05:20;101420.97;;;-5.48;100.00
13420;BME280;6781;58.440;15.470;2023-02-03T01:07:47;101417.59;;;-5.50;100.00
13420;BME280;6781;58.440;15.470;2023-02-03T01:10:14;101408.31;;;-5.51;100.00
13420;BME280;6781;58.440;15.470;2023-02-03T01:12:41;101410.00;;;-5.45;100.00
13420;BME280;6781;58.440;15.470;2023-02-03T01:15:09;101407.47;;;-5.44;100.00
13420;BME280;6781;58.440;15.470;2023-02-03T01:17:36;101399.91;;;-5.44;100.00
13420;BME280;6781;58.440;15.470;2023-02-03T01:20:03;101388.13;;;-5.52;100.00
13420;BME280;6781;58.440;15.470;2023-02-03T01:22:30;101389.81;;;-5.50;100.00
13420;BME280;6781;58.440;15.470;2023-02-03T01:24:57;101383.06;;;-5.45;100.00
13420;BME280;6781;58.440;15.470;2023-02-03T01:27:23;101383.06;;;-5.39;100.00
13420;BME280;6781;58.440;15.470;2023-02-03T01:29:50;101376.31;;;-5.43;100.00
13420;BME280;6781;58.440;15.470;2023-02-03T01:32:18;101369.59;;;-5.38;100.00
13420;BME280;6781;58.440;15.470;2023-02-03T01:34:45;101361.16;;;-5.34;100.00
13420;BME280;6781;58.440;15.470;2023-02-03T01:37:12;101354.41;;;-5.32;100.00
13420;BME280;6781;58.440;15.470;2023-02-03T01:39:41;101356.94;;;-5.30;100.00
13420;BME280;6781;58.440;15.470;2023-02-03T01:42:08;101348.50;;;-5.29;100.00
13420;BME280;6781;58.440;15.470;2023-02-03T01:44:38;101351.88;;;-5.27;100.00
13420;BME280;6781;58.440;15.470;2023-02-03T01:47:07;101350.19;;;-5.23;100.00
13420;BME280;6781;58.440;15.470;2023-02-03T01:49:38;101340.94;;;-5.28;100.00
13420;BME280;6781;58.440;15.470;2023-02-03T01:52:07;101330.84;;;-5.40;100.00
13420;BME280;6781;58.440;15.470;2023-02-03T01:54:36;101328.31;;;-5.35;100.00
13420;BME280;6781;58.440;15.470;2023-02-03T01:57:05;101325.78;;;-5.34;100.00
13420;BME280;6781;58.440;15.470;2023-02-03T01:59:34;101319.03;;;-5.32;100.00
13420;BME280;6781;58.440;15.470;2023-02-03T02:02:01;101308.97;;;-5.53;100.00
13420;BME280;6781;58.440;15.470;2023-02-03T02:04:31;101314.00;;;-5.47;100.00
13420;BME280;6781;58.440;15.470;2023-02-03T02:07:02;101312.31;;;-5.39;100.00
13420;BME280;6781;58.440;15.470;2023-02-03T02:09:29;101309.78;;;-5.43;100.00
13420;BME280;6781;58.440;15.470;2023-02-03T02:11:56;101298.88;;;-5.59;100.00
13420;BME280;6781;58.440;15.470;2023-02-03T02:14:23;101296.31;;;-5.44;100.00
13420;BME280;6781;58.440;15.470;2023-02-03T02:16:51;101293.81;;;-5.54;100.00
13420;BME280;6781;58.440;15.470;2023-02-03T02:19:27;101292.16;;;-5.66;100.00
13420;BME280;6781;58.440;15.470;2023-02-03T02:22:08;101291.31;;;-5.67;100.00
13420;BME280;6781;58.440;15.470;2023-02-03T02:27:25;101298.84;;;-5.50;100.00
13420;BME280;6781;58.440;15.470;2023-02-03T02:30:10;101304.75;;;-5.51;100.00
13420;BME280;6781;58.440;15.470;2023-02-03T02:32:47;101298.00;;;-5.47;100.00
13420;BME280;6781;58.440;15.470;2023-02-03T02:35:18;101294.66;;;-5.52;100.00
13420;BME280;6781;58.440;15.470;2023-02-03T02:37:47;101288.78;;;-5.59;100.00
13420;BME280;6781;58.440;15.470;2023-02-03T02:40:18;101288.78;;;-5.65;100.00
13420;BME280;6781;58.440;15.470;2023-02-03T02:42:51;101288.78;;;-5.59;100.00
13420;BME280;6781;58.440;15.470;2023-02-03T02:45:23;101287.09;;;-5.60;100.00
13420;BME280;6781;58.440;15.470;2023-02-03T02:47:53;101275.31;;;-5.69;100.00
13420;BME280;6781;58.440;15.470;2023-02-03T02:50:22;101282.03;;;-5.60;100.00
13420;BME280;6781;58.440;15.470;2023-02-03T02:52:50;101270.25;;;-5.60;100.00
13420;BME280;6781;58.440;15.470;2023-02-03T02:55:19;101265.22;;;-5.76;100.00
13420;BME280;6781;58.440;15.470;2023-02-03T02:57:48;101264.38;;;-5.65;100.00
13420;BME280;6781;58.440;15.470;2023-02-03T03:00:17;101266.88;;;-5.63;100.00
13420;BME280;6781;58.440;15.470;2023-02-03T03:02:44;101262.69;;;-5.70;100.00
13420;BME280;6781;58.440;15.470;2023-02-03T03:07:48;101262.66;;;-5.57;100.00
13420;BME280;6781;58.440;15.470;2023-02-03T03:10:20;101253.44;;;-5.68;100.00
13420;BME280;6781;58.440;15.470;2023-02-03T03:12:50;101245.84;;;-5.71;100.00
13420;BME280;6781;58.440;15.470;2023-02-03T03:15:19;101245.00;;;-5.67;100.00
13420;BME280;6781;58.440;15.470;2023-02-03T03:17:48;101245.84;;;-5.70;100.00
13420;BME280;6781;58.440;15.470;2023-02-03T03:20:18;101234.88;;;-5.58;100.00
13420;BME280;6781;58.440;15.470;2023-02-03T03:22:49;101233.22;;;-5.65;100.00
13420;BME280;6781;58.440;15.470;2023-02-03T03:25:18;101233.22;;;-5.71;100.00
13420;BME280;6781;58.440;15.470;2023-02-03T03:27:48;101222.28;;;-5.69;100.00
13420;BME280;6781;58.440;15.470;2023-02-03T03:30:16;101226.50;;;-5.77;100.00
13420;BME280;6781;58.440;15.470;2023-02-03T03:32:43;101217.25;;;-5.79;100.00
13420;BME280;6781;58.440;15.470;2023-02-03T03:35:10;101218.09;;;-5.80;100.00
13420;BME280;6781;58.440;15.470;2023-02-03T03:37:38;101224.81;;;-5.73;100.00
13420;BME280;6781;58.440;15.470;2023-02-03T03:40:10;101215.56;;;-5.76;100.00
13420;BME280;6781;58.440;15.470;2023-02-03T03:42:38;101216.41;;;-5.78;100.00
13420;BME280;6781;58.440;15.470;2023-02-03T03:45:08;101213.03;;;-5.80;100.00
13420;BME280;6781;58.440;15.470;2023-02-03T03:47:37;101221.47;;;-5.78;100.00
13420;BME280;6781;58.440;15.470;2023-02-03T03:50:06;101220.63;;;-5.83;100.00
13420;BME280;6781;58.440;15.470;2023-02-03T03:52:35;101218.13;;;-5.89;100.00
13420;BME280;6781;58.440;15.470;2023-02-03T03:55:04;101217.31;;;-5.92;100.00
13420;BME280;6781;58.440;15.470;2023-02-03T03:57:34;101220.63;;;-5.85;100.00
13420;BME280;6781;58.440;15.470;2023-02-03T04:00:03;101226.50;;;-5.84;100.00
13420;BME280;6781;58.440;15.470;2023-02-03T04:02:31;101215.56;;;-5.86;100.00
13420;BME280;6781;58.440;15.470;2023-02-03T04:04:59;101218.94;;;-5.78;100.00
13420;BME280;6781;58.440;15.470;2023-02-03T04:07:36;101211.38;;;-5.87;100.00
13420;BME280;6781;58.440;15.470;2023-02-03T04:10:03;101213.03;;;-5.74;100.00
13420;BME280;6781;58.440;15.470;2023-02-03T04:12:34;101216.41;;;-5.77;100.00
13420;BME280;6781;58.440;15.470;2023-02-03T04:15:00;101218.06;;;-5.70;100.00
13420;BME280;6781;58.440;15.470;2023-02-03T04:17:27;101223.97;;;-5.65;100.00
13420;BME280;6781;58.440;15.470;2023-02-03T04:19:54;101223.09;;;-5.62;100.00
13420;BME280;6781;58.440;15.470;2023-02-03T04:22:21;101211.34;;;-5.69;100.00
13420;BME280;6781;58.440;15.470;2023-02-03T04:24:47;101209.66;;;-5.66;100.00
13420;BME280;6781;58.440;15.470;2023-02-03T04:27:14;101206.28;;;-5.66;100.00
13420;BME280;6781;58.440;15.470;2023-02-03T04:29:42;101202.91;;;-5.68;100.00
13420;BME280;6781;58.440;15.470;2023-02-03T04:32:11;101202.91;;;-5.64;100.00
13420;BME280;6781;58.440;15.470;2023-02-03T04:34:38;101202.91;;;-5.65;100.00
13420;BME280;6781;58.440;15.470;2023-02-03T04:37:05;101207.09;;;-5.57;100.00
13420;BME280;6781;58.440;15.470;2023-02-03T04:39:31;101197.84;;;-5.56;100.00
13420;BME280;6781;58.440;15.470;2023-02-03T04:41:58;101192.78;;;-5.61;100.00
13420;BME280;6781;58.440;15.470;2023-02-03T04:44:25;101191.94;;;-5.61;100.00
13420;BME280;6781;58.440;15.470;2023-02-03T04:46:53;101186.91;;;-5.61;100.00
13420;BME280;6781;58.440;15.470;2023-02-03T04:49:19;101184.41;;;-5.70;100.00
13420;BME280;6781;58.440;15.470;2023-02-03T04:51:47;101186.06;;;-5.63;100.00
13420;BME280;6781;58.440;15.470;2023-02-03T04:54:14;101189.44;;;-5.61;100.00
13420;BME280;6781;58.440;15.470;2023-02-03T04:56:40;101184.41;;;-5.67;100.00
13420;BME280;6781;58.440;15.470;2023-02-03T04:59:07;101180.16;;;-5.61;100.00
13420;BME280;6781;58.440;15.470;2023-02-03T05:01:34;101181.88;;;-5.66;100.00
13420;BME280;6781;58.440;15.470;2023-02-03T05:04:02;101177.66;;;-5.62;100.00
13420;BME280;6781;58.440;15.470;2023-02-03T05:06:29;101173.44;;;-5.65;100.00
13420;BME280;6781;58.440;15.470;2023-02-03T05:08:56;101168.38;;;-5.60;100.00
13420;BME280;6781;58.440;15.470;2023-02-03T05:11:23;101169.22;;;-5.64;100.00
13420;BME280;6781;58.440;15.470;2023-02-03T05:13:50;101175.94;;;-5.60;100.00
13420;BME280;6781;58.440;15.470;2023-02-03T05:16:16;101169.22;;;-5.61;100.00
13420;BME280;6781;58.440;15.470;2023-02-03T05:18:43;101169.22;;;-5.58;100.00
13420;BME280;6781;58.440;15.470;2023-02-03T05:21:11;101172.56;;;-5.51;100.00
13420;BME280;6781;58.440;15.470;2023-02-03T05:23:38;101169.22;;;-5.58;100.00
13420;BME280;6781;58.440;15.470;2023-02-03T05:26:04;101170.03;;;-5.51;100.00
13420;BME280;6781;58.440;15.470;2023-02-03T05:28:31;101159.09;;;-5.52;100.00
13420;BME280;6781;58.440;15.470;2023-02-03T05:30:58;101160.78;;;-5.57;100.00
13420;BME280;6781;58.440;15.470;2023-02-03T05:33:24;101155.72;;;-5.51;100.00
13420;BME280;6781;58.440;15.470;2023-02-03T05:35:51;101156.53;;;-5.47;100.00
13420;BME280;6781;58.440;15.470;2023-02-03T05:38:20;101156.56;;;-5.53;100.00
13420;BME280;6781;58.440;15.470;2023-02-03T05:40:46;101154.88;;;-5.53;100.00
13420;BME280;6781;58.440;15.470;2023-02-03T05:43:30;101149.00;;;-5.55;100.00
13420;BME280;6781;58.440;15.470;2023-02-03T05:45:58;101152.34;;;-5.53;100.00
13420;BME280;6781;58.440;15.470;2023-02-03T05:48:25;101151.50;;;-5.50;100.00
13420;BME280;6781;58.440;15.470;2023-02-03T05:50:51;101145.63;;;-5.54;100.00
13420;BME280;6781;58.440;15.470;2023-02-03T05:53:20;101151.50;;;-5.53;100.00
13420;BME280;6781;58.440;15.470;2023-02-03T05:55:46;101145.59;;;-5.49;100.00
13420;BME280;6781;58.440;15.470;2023-02-03T05:58:13;101147.28;;;-5.45;100.00
13420;BME280;6781;58.440;15.470;2023-02-03T06:00:40;101148.97;;;-5.52;100.00
13420;BME280;6781;58.440;15.470;2023-02-03T06:03:07;101139.72;;;-5.51;100.00
13420;BME280;6781;58.440;15.470;2023-02-03T06:05:33;101142.22;;;-5.47;100.00
13420;BME280;6781;58.440;15.470;2023-02-03T06:08:02;101138.88;;;-5.49;100.00
13420;BME280;6781;58.440;15.470;2023-02-03T06:10:30;101129.63;;;-5.58;100.00
13420;BME280;6781;58.440;15.470;2023-02-03T06:12:57;101139.69;;;-5.44;100.00
13420;BME280;6781;58.440;15.470;2023-02-03T06:15:27;101138.00;;;-5.46;100.00
13420;BME280;6781;58.440;15.470;2023-02-03T06:17:55;101142.22;;;-5.44;100.00
13420;BME280;6781;58.440;15.470;2023-02-03T06:20:22;101128.78;;;-5.52;100.00
13420;BME280;6781;58.440;15.470;2023-02-03T06:22:49;101143.06;;;-5.49;100.00
13420;BME280;6781;58.440;15.470;2023-02-03T06:25:15;101140.56;;;-5.51;100.00
13420;BME280;6781;58.440;15.470;2023-02-03T06:27:45;101142.22;;;-5.44;100.00
13420;BME280;6781;58.440;15.470;2023-02-03T06:30:12;101143.88;;;-5.40;100.00
13420;BME280;6781;58.440;15.470;2023-02-03T06:32:39;101142.19;;;-5.41;100.00
13420;BME280;6781;58.440;15.470;2023-02-03T06:35:06;101147.22;;;-5.36;100.00
13420;BME280;6781;58.440;15.470;2023-02-03T06:37:33;101147.25;;;-5.41;100.00
13420;BME280;6781;58.440;15.470;2023-02-03T06:40:01;101148.94;;;-5.40;100.00
13420;BME280;6781;58.440;15.470;2023-02-03T06:42:28;101152.28;;;-5.39;100.00
13420;BME280;6781;58.440;15.470;2023-02-03T06:44:57;101164.09;;;-5.38;100.00
13420;BME280;6781;58.440;15.470;2023-02-03T06:47:24;101158.19;;;-5.39;100.00
13420;BME280;6781;58.440;15.470;2023-02-03T06:49:50;101166.59;;;-5.35;100.00
13420;BME280;6781;58.440;15.470;2023-02-03T06:52:17;101161.53;;;-5.35;100.00
13420;BME280;6781;58.440;15.470;2023-02-03T06:54:44;101160.69;;;-5.34;100.00
13420;BME280;6781;58.440;15.470;2023-02-03T06:57:11;101163.19;;;-5.28;100.00
13420;BME280;6781;58.440;15.470;2023-02-03T06:59:38;101164.00;;;-5.25;100.00
13420;BME280;6781;58.440;15.470;2023-02-03T07:02:06;101169.06;;;-5.23;100.00
13420;BME280;6781;58.440;15.470;2023-02-03T07:04:33;101162.34;;;-5.26;100.00
13420;BME280;6781;58.440;15.470;2023-02-03T07:06:59;101162.25;;;-5.16;100.00
13420;BME280;6781;58.440;15.470;2023-02-03T07:09:26;101160.63;;;-5.20;100.00
13420;BME280;6781;58.440;15.470;2023-02-03T07:11:53;101162.28;;;-5.19;100.00
13420;BME280;6781;58.440;15.470;2023-02-03T07:14:20;101170.66;;;-5.14;100.00
13420;BME280;6781;58.440;15.470;2023-02-03T07:16:46;101155.56;;;-5.20;100.00
13420;BME280;6781;58.440;15.470;2023-02-03T07:19:15;101159.72;;;-5.13;100.00
13420;BME280;6781;58.440;15.470;2023-02-03T07:21:42;101158.03;;;-5.11;100.00
13420;BME280;6781;58.440;15.470;2023-02-03T07:24:09;101160.53;;;-5.10;100.00
13420;BME280;6781;58.440;15.470;2023-02-03T07:26:35;101161.38;;;-5.08;100.00
13420;BME280;6781;58.440;15.470;2023-02-03T07:29:03;101168.06;;;-5.01;100.00
13420;BME280;6781;58.440;15.470;2023-02-03T07:31:30;101158.81;;;-5.03;100.00
13420;BME280;6781;58.440;15.470;2023-02-03T07:33:57;101166.38;;;-5.00;100.00
13420;BME280;6781;58.440;15.470;2023-02-03T07:36:32;101165.50;;;-4.96;100.00
13420;BME280;6781;58.440;15.470;2023-02-03T07:39:01;101168.84;;;-4.91;100.00
13420;BME280;6781;58.440;15.470;2023-02-03T07:41:28;101167.97;;;-4.85;100.00
13420;BME280;6781;58.440;15.470;2023-02-03T07:43:55;101175.56;;;-4.84;100.00
13420;BME280;6781;58.440;15.470;2023-02-03T07:46:22;101166.28;;;-4.85;100.00
13420;BME280;6781;58.440;15.470;2023-02-03T07:48:52;101162.88;;;-4.81;100.00
13420;BME280;6781;58.440;15.470;2023-02-03T07:51:19;101169.63;;;-4.80;100.00
13420;BME280;6781;58.440;15.470;2023-02-03T07:53:59;101162.88;;;-4.81;100.00
13420;BME280;6781;58.440;15.470;2023-02-03T07:56:30;101183.06;;;-4.73;100.00
13420;BME280;6781;58.440;15.470;2023-02-03T07:58:59;101188.91;;;-4.62;100.00
13420;BME280;6781;58.440;15.470;2023-02-03T08:01:26;101189.75;;;-4.62;100.00
13420;BME280;6781;58.440;15.470;2023-02-03T08:03:53;101195.63;;;-4.60;100.00
13420;BME280;6781;58.440;15.470;2023-02-03T08:06:20;101189.72;;;-4.60;100.00
13420;BME280;6781;58.440;15.470;2023-02-03T08:08:47;101194.78;;;-4.59;100.00
13420;BME280;6781;58.440;15.470;2023-02-03T08:11:15;101202.34;;;-4.55;100.00
13420;BME280;6781;58.440;15.470;2023-02-03T08:13:42;101203.16;;;-4.52;100.00
13420;BME280;6781;58.440;15.470;2023-02-03T08:16:09;101206.53;;;-4.51;100.00
13420;BME280;6781;58.440;15.470;2023-02-03T08:18:36;101212.41;;;-4.46;100.00
13420;BME280;6781;58.440;15.470;2023-02-03T08:21:03;101212.38;;;-4.43;100.00
13420;BME280;6781;58.440;15.470;2023-02-03T08:23:30;101223.34;;;-4.44;100.00
13420;BME280;6781;58.440;15.470;2023-02-03T08:25:57;101224.16;;;-4.39;100.00
13420;BME280;6781;58.440;15.470;2023-02-03T08:28:27;101221.63;;;-4.41;100.00
13420;BME280;6781;58.440;15.470;2023-02-03T08:30:55;101228.34;;;-4.35;100.00
13420;BME280;6781;58.440;15.470;2023-02-03T08:33:24;101227.47;;;-4.31;100.00
13420;BME280;6781;58.440;15.470;2023-02-03T08:35:52;101231.69;;;-4.33;100.00
13420;BME280;6781;58.440;15.470;2023-02-03T08:38:19;101242.66;;;-4.31;100.00
13420;BME280;6781;58.440;15.470;2023-02-03T08:40:47;101240.13;;;-4.31;100.00
13420;BME280;6781;58.440;15.470;2023-02-03T08:43:14;101245.97;;;-4.23;100.00
13420;BME280;6781;58.440;15.470;2023-02-03T08:45:43;101235.91;;;-4.29;100.00
13420;BME280;6781;58.440;15.470;2023-02-03T08:48:10;101245.97;;;-4.23;100.00
13420;BME280;6781;58.440;15.470;2023-02-03T08:50:39;101243.44;;;-4.24;100.00
13420;BME280;6781;58.440;15.470;2023-02-03T08:53:06;101249.31;;;-4.18;100.00
13420;BME280;6781;58.440;15.470;2023-02-03T08:55:33;101250.19;;;-4.25;100.00
13420;BME280;6781;58.440;15.470;2023-02-03T08:58:04;101264.53;;;-4.21;100.00
13420;BME280;6781;58.440;15.470;2023-02-03T09:00:31;101277.13;;;-4.16;100.00
13420;BME280;6781;58.440;15.470;2023-02-03T09:02:59;101268.72;;;-4.20;100.00
13420;BME280;6781;58.440;15.470;2023-02-03T09:05:26;101284.69;;;-4.09;100.00
13420;BME280;6781;58.440;15.470;2023-02-03T09:07:57;101277.97;;;-4.13;100.00
13420;BME280;6781;58.440;15.470;2023-02-03T09:10:24;101283.84;;;-4.11;100.00
13420;BME280;6781;58.440;15.470;2023-02-03T09:12:53;101298.97;;;-4.02;100.00
13420;BME280;6781;58.440;15.470;2023-02-03T09:15:20;101296.47;;;-4.05;100.00
13420;BME280;6781;58.440;15.470;2023-02-03T09:17:47;101304.84;;;-3.97;100.00
13420;BME280;6781;58.440;15.470;2023-02-03T09:20:15;101308.31;;;-4.07;100.00
13420;BME280;6781;58.440;15.470;2023-02-03T09:22:43;101312.44;;;-3.95;100.00
13420;BME280;6781;58.440;15.470;2023-02-03T09:25:10;101312.50;;;-4.03;100.00
13420;BME280;6781;58.440;15.470;2023-02-03T09:27:42;101312.50;;;-4.03;100.00
13420;BME280;6781;58.440;15.470;2023-02-03T09:30:09;101304.97;;;-4.15;100.00
13420;BME280;6781;58.440;15.470;2023-02-03T09:32:37;101317.56;;;-4.03;100.00
13420;BME280;6781;58.440;15.470;2023-02-03T09:35:04;101314.16;;;-3.99;100.00
13420;BME280;6781;58.440;15.470;2023-02-03T09:37:33;101328.47;;;-3.95;100.00
13420;BME280;6781;58.440;15.470;2023-02-03T09:40:00;101318.28;;;-3.88;100.00
13420;BME280;6781;58.440;15.470;2023-02-03T09:42:42;101314.91;;;-3.87;100.00
13420;BME280;6781;58.440;15.470;2023-02-03T09:45:17;101323.25;;;-3.76;100.00
13420;BME280;6781;58.440;15.470;2023-02-03T09:47:50;101331.72;;;-3.77;100.00
13420;BME280;6781;58.440;15.470;2023-02-03T09:50:20;101331.66;;;-3.71;100.00
13420;BME280;6781;58.440;15.470;2023-02-03T09:52:49;101346.00;;;-3.70;100.00
13420;BME280;6781;58.440;15.470;2023-02-03T09:55:20;101367.06;;;-3.62;100.00
13420;BME280;6781;58.440;15.470;2023-02-03T09:57:51;101370.47;;;-3.66;100.00
13420;BME280;6781;58.440;15.470;2023-02-03T10:00:22;101369.69;;;-3.73;100.00
13420;BME280;6781;58.440;15.470;2023-02-03T10:02:54;101362.91;;;-3.72;100.00
13420;BME280;6781;58.440;15.470;2023-02-03T10:05:24;101363.81;;;-3.78;100.00
13420;BME280;6781;58.440;15.470;2023-02-03T10:07:58;101368.84;;;-3.73;100.00
13420;BME280;6781;58.440;15.470;2023-02-03T10:10:31;101367.19;;;-3.80;100.00
13420;BME280;6781;58.440;15.470;2023-02-03T10:13:04;101374.00;;;-3.85;100.00
13420;BME280;6781;58.440;15.470;2023-02-03T10:15:39;101373.16;;;-3.84;100.00
13420;BME280;6781;58.440;15.470;2023-02-03T10:18:11;101381.56;;;-3.79;100.00
13420;BME280;6781;58.440;15.470;2023-02-03T10:20:41;101379.06;;;-3.85;100.00
13420;BME280;6781;58.440;15.470;2023-02-03T10:23:11;101380.66;;;-3.74;100.00
13420;BME280;6781;58.440;15.470;2023-02-03T10:25:40;101400.84;;;-3.60;100.00
13420;BME280;6781;58.440;15.470;2023-02-03T10:28:09;101394.97;;;-3.67;100.00
13420;BME280;6781;58.440;15.470;2023-02-03T10:30:41;101394.94;;;-3.62;100.00
13420;BME280;6781;58.440;15.470;2023-02-03T10:33:12;101409.25;;;-3.58;100.00
13420;BME280;6781;58.440;15.470;2023-02-03T10:35:43;101399.13;;;-3.58;100.00
13420;BME280;6781;58.440;15.470;2023-02-03T10:41:13;101418.38;;;-3.40;100.00
13420;BME280;6781;58.440;15.470;2023-02-03T10:43:40;101414.94;;;-3.30;100.00
13420;BME280;6781;58.440;15.470;2023-02-03T10:46:16;101424.16;;;-3.21;100.00
13420;BME280;6781;58.440;15.470;2023-02-03T10:48:43;101426.66;;;-3.17;100.00
13420;BME280;6781;58.440;15.470;2023-02-03T10:51:16;101421.53;;;-3.14;100.00
13420;BME280;6781;58.440;15.470;2023-02-03T10:54:03;101426.59;;;-3.12;100.00
13420;BME280;6781;58.440;15.470;2023-02-03T10:56:45;101435.91;;;-3.13;100.00
13420;BME280;6781;58.440;15.470;2023-02-03T10:59:21;101443.44;;;-3.05;100.00
13420;BME280;6781;58.440;15.470;2023-02-03T11:01:56;101451.72;;;-2.85;100.00
13420;BME280;6781;58.440;15.470;2023-02-03T11:04:24;101457.63;;;-2.83;100.00
13420;BME280;6781;58.440;15.470;2023-02-03T11:07:10;101460.09;;;-2.78;100.00
13420;BME280;6781;58.440;15.470;2023-02-03T11:09:44;101468.38;;;-2.59;100.00
13420;BME280;6781;58.440;15.470;2023-02-03T11:12:24;101470.91;;;-2.59;100.00
13420;BME280;6781;58.440;15.470;2023-02-03T11:14:56;101471.75;;;-2.59;100.00
13420;BME280;6781;58.440;15.470;2023-02-03T11:17:45;101478.34;;;-2.43;100.00
13420;BME280;6781;58.440;15.470;2023-02-03T11:20:20;101461.25;;;-2.28;100.00
13420;BME280;6781;58.440;15.470;2023-02-03T11:22:51;101464.69;;;-2.33;100.00
13420;BME280;6781;58.440;15.470;2023-02-03T11:25:24;101476.34;;;-2.16;100.00
13420;BME280;6781;58.440;15.470;2023-02-03T11:27:56;101469.69;;;-2.25;100.00
13420;BME280;6781;58.440;15.470;2023-02-03T11:30:29;101469.69;;;-2.26;100.00
13420;BME280;6781;58.440;15.470;2023-02-03T11:32:59;101478.06;;;-2.20;100.00
13420;BME280;6781;58.440;15.470;2023-02-03T11:35:32;101475.47;;;-2.14;100.00
13420;BME280;6781;58.440;15.470;2023-02-03T11:38:02;101474.53;;;-2.08;100.00
13420;BME280;6781;58.440;15.470;2023-02-03T11:40:29;101483.88;;;-2.10;100.00
13420;BME280;6781;58.440;15.470;2023-02-03T11:43:16;101485.50;;;-2.05;100.00
13420;BME280;6781;58.440;15.470;2023-02-03T11:45:46;101492.25;;;-2.01;100.00
13420;BME280;6781;58.440;15.470;2023-02-03T11:48:20;101502.31;;;-1.93;100.00
13420;BME280;6781;58.440;15.470;2023-02-03T11:50:53;101516.69;;;-1.92;100.00
13420;BME280;6781;58.440;15.470;2023-02-03T11:53:40;101522.53;;;-1.84;100.00
13420;BME280;6781;58.440;15.470;2023-02-03T11:56:14;101516.56;;;-1.83;100.00
13420;BME280;6781;58.440;15.470;2023-02-03T12:01:53;101527.41;;;-1.70;100.00
13420;BME280;6781;58.440;15.470;2023-02-03T12:04:30;101532.41;;;-1.64;100.00
13420;BME280;6781;58.440;15.470;2023-02-03T12:07:08;101548.47;;;-1.60;100.00
13420;BME280;6781;58.440;15.470;2023-02-03T12:09:42;101539.13;;;-1.60;100.00
13420;BME280;6781;58.440;15.470;2023-02-03T12:12:16;101550.13;;;-1.59;100.00
13420;BME280;6781;58.440;15.470;2023-02-03T12:14:48;101559.31;;;-1.48;100.00
13420;BME280;6781;58.440;15.470;2023-02-03T12:20:05;101577.72;;;-1.31;100.00
13420;BME280;6781;58.440;15.470;2023-02-03T12:22:48;101572.53;;;-1.24;100.00
13420;BME280;6781;58.440;15.470;2023-02-03T12:25:24;101577.63;;;-1.24;100.00
13420;BME280;6781;58.440;15.470;2023-02-03T12:27:55;101578.34;;;-1.15;100.00
13420;BME280;6781;58.440;15.470;2023-02-03T12:30:29;101577.53;;;-1.17;100.00
13420;BME280;6781;58.440;15.470;2023-02-03T12:32:58;101576.59;;;-1.11;100.00
13420;BME280;6781;58.440;15.470;2023-02-03T12:35:32;101578.16;;;-1.03;100.00
13420;BME280;6781;58.440;15.470;2023-02-03T12:38:00;101593.44;;;-1.03;100.00
13420;BME280;6781;58.440;15.470;2023-02-03T12:40:34;101607.91;;;-1.06;100.00
13420;BME280;6781;58.440;15.470;2023-02-03T12:43:03;101616.28;;;-0.98;100.00
13420;BME280;6781;58.440;15.470;2023-02-03T12:45:38;101621.22;;;-0.89;100.00
13420;BME280;6781;58.440;15.470;2023-02-03T12:48:09;101630.53;;;-0.86;100.00
13420;BME280;6781;58.440;15.470;2023-02-03T12:50:42;101627.13;;;-0.87;100.00
13420;BME280;6781;58.440;15.470;2023-02-03T12:53:15;101617.69;;;-0.79;100.00
13420;BME280;6781;58.440;15.470;2023-02-03T12:55:44;101629.53;;;-0.78;100.00
13420;BME280;6781;58.440;15.470;2023-02-03T12:58:17;101625.31;;;-0.79;100.00
13420;BME280;6781;58.440;15.470;2023-02-03T13:00:47;101619.25;;;-0.72;100.00
13420;BME280;6781;58.440;15.470;2023-02-03T13:03:20;101632.78;;;-0.67;100.00
13420;BME280;6781;58.440;15.470;2023-02-03T13:05:53;101636.19;;;-0.68;100.00